Time,TemperatureF,DewpointF,PressureIn,WindDirection,WindDirectionDegrees,WindSpeedMPH,WindSpeedGustMPH,Humidity,HourlyPrecipIn,Conditions,Clouds,dailyrainin,SoftwareType,DateUTC
2013-03-01 00:10:00,37.3,32.0,29.70,NNW,339,0.0,2.0,81,0.00,,---,0.00,VWS V14.01,2013-03-01 05:10:00,
2013-03-01 00:20:00,37.3,32.3,29.70,NW,305,0.0,2.0,82,0.00,,---,0.00,VWS V14.01,2013-03-01 05:20:00,
2013-03-01 00:30:00,37.2,31.9,29.70,West,267,0.0,3.0,81,0.00,,---,0.00,VWS V14.01,2013-03-01 05:30:00,
2013-03-01 00:40:00,36.9,31.9,29.70,West,265,0.0,0.0,82,0.00,,---,0.00,VWS V14.01,2013-03-01 05:40:00,
2013-03-01 00:50:00,36.6,31.9,29.70,WSW,257,0.0,3.0,83,0.00,,---,0.00,VWS V14.01,2013-03-01 05:50:00,
2013-03-01 01:00:00,36.2,31.8,29.71,WSW,257,0.0,0.0,84,0.00,,---,0.00,VWS V14.01,2013-03-01 06:00:00,
2013-03-01 01:10:00,36.3,31.6,29.71,WSW,257,0.0,0.0,83,0.00,,---,0.00,VWS V14.01,2013-03-01 06:10:00,
2013-03-01 01:20:00,36.5,31.5,29.71,WSW,257,0.0,0.0,82,0.00,,---,0.00,VWS V14.01,2013-03-01 06:20:00,
2013-03-01 01:30:00,36.3,32.2,29.71,WSW,257,0.0,0.0,85,0.00,,---,0.00,VWS V14.01,2013-03-01 06:30:00,
2013-03-01 01:40:00,36.0,32.2,29.71,WSW,257,0.0,0.0,86,0.00,,---,0.00,VWS V14.01,2013-03-01 06:40:00,
2013-03-01 01:50:00,35.9,31.8,29.71,WSW,257,0.0,0.0,85,0.00,,---,0.00,VWS V14.01,2013-03-01 06:50:00,
2013-03-01 02:00:00,35.6,32.1,29.71,WSW,257,0.0,0.0,87,0.00,,---,0.00,VWS V14.01,2013-03-01 07:00:00,
2013-03-01 02:10:00,35.0,31.8,29.71,WSW,257,0.0,0.0,88,0.00,,---,0.00,VWS V14.01,2013-03-01 07:10:00,
2013-03-01 02:20:00,34.7,31.5,29.71,WSW,257,0.0,0.0,88,0.00,,---,0.00,VWS V14.01,2013-03-01 07:20:00,
2013-03-01 02:30:00,34.4,31.2,29.71,WSW,257,0.0,0.0,88,0.00,,---,0.00,VWS V14.01,2013-03-01 07:30:00,
2013-03-01 02:40:00,34.3,31.1,29.71,WSW,257,0.0,0.0,88,0.00,,---,0.00,VWS V14.01,2013-03-01 07:40:00,
2013-03-01 02:50:00,34.1,31.2,29.70,WSW,257,0.0,0.0,89,0.00,,---,0.00,VWS V14.01,2013-03-01 07:50:00,
2013-03-01 03:10:00,33.7,31.1,29.69,WSW,257,0.0,0.0,90,0.00,,---,0.00,VWS V14.01,2013-03-01 08:10:00,
2013-03-01 03:20:00,33.5,31.2,29.69,WSW,257,0.0,0.0,91,0.00,,---,0.00,VWS V14.01,2013-03-01 08:20:00,
2013-03-01 03:30:00,33.4,31.1,29.69,WSW,257,0.0,0.0,91,0.00,,---,0.00,VWS V14.01,2013-03-01 08:30:00,
2013-03-01 03:40:00,33.1,31.0,29.69,WSW,257,0.0,0.0,92,0.00,,---,0.00,VWS V14.01,2013-03-01 08:40:00,
2013-03-01 03:50:00,32.8,31.0,29.70,WSW,257,0.0,0.0,93,0.00,,---,0.00,VWS V14.01,2013-03-01 08:50:00,
2013-03-01 04:00:00,32.7,31.4,29.70,WSW,257,0.0,0.0,95,0.00,,---,0.00,VWS V14.01,2013-03-01 09:00:00,
2013-03-01 04:10:00,32.7,31.4,29.70,WSW,257,0.0,0.0,95,0.00,,---,0.00,VWS V14.01,2013-03-01 09:10:00,
2013-03-01 04:20:00,32.7,31.4,29.70,WSW,257,0.0,0.0,95,0.00,,---,0.00,VWS V14.01,2013-03-01 09:20:00,
2013-03-01 04:30:00,32.5,31.2,29.70,WSW,257,0.0,0.0,95,0.00,,---,0.00,VWS V14.01,2013-03-01 09:30:00,
2013-03-01 04:40:00,32.5,31.2,29.70,WSW,257,0.0,0.0,95,0.00,,---,0.00,VWS V14.01,2013-03-01 09:40:00,
2013-03-01 04:50:00,32.5,31.2,29.70,WSW,257,0.0,0.0,95,0.00,,---,0.00,VWS V14.01,2013-03-01 09:50:00,
2013-03-01 05:00:00,32.2,31.2,29.71,WSW,257,0.0,0.0,96,0.00,,---,0.00,VWS V14.01,2013-03-01 10:00:00,
2013-03-01 05:09:00,32.4,31.4,29.71,WSW,257,0.0,0.0,96,0.00,,---,0.00,VWS V14.01,2013-03-01 10:09:00,
2013-03-01 05:20:00,32.2,31.2,29.71,WSW,257,0.0,0.0,96,0.00,,---,0.00,VWS V14.01,2013-03-01 10:20:00,
2013-03-01 05:29:00,32.1,31.4,29.71,WSW,257,0.0,0.0,97,0.00,,---,0.00,VWS V14.01,2013-03-01 10:29:00,
2013-03-01 05:40:00,31.9,31.1,29.71,WSW,257,0.0,0.0,97,0.00,,---,0.00,VWS V14.01,2013-03-01 10:40:00,
2013-03-01 05:50:00,31.8,31.3,29.72,WSW,257,0.0,0.0,98,0.00,,---,0.00,VWS V14.01,2013-03-01 10:50:00,
2013-03-01 06:00:00,31.9,31.4,29.72,WSW,257,0.0,0.0,98,0.00,,---,0.00,VWS V14.01,2013-03-01 11:00:00,
2013-03-01 06:09:00,31.9,31.4,29.72,WSW,257,0.0,0.0,98,0.00,,---,0.00,VWS V14.01,2013-03-01 11:09:00,
2013-03-01 06:20:00,31.9,31.4,29.72,WSW,257,0.0,0.0,98,0.00,,---,0.00,VWS V14.01,2013-03-01 11:20:00,
2013-03-01 06:30:00,31.9,31.4,29.72,WSW,257,0.0,0.0,98,0.00,,---,0.00,VWS V14.01,2013-03-01 11:30:00,
2013-03-01 06:40:00,31.8,31.5,29.72,WSW,257,0.0,0.0,99,0.00,,---,0.00,VWS V14.01,2013-03-01 11:40:00,
2013-03-01 06:50:00,31.8,31.5,29.73,WSW,257,0.0,0.0,99,0.00,,---,0.00,VWS V14.01,2013-03-01 11:50:00,
2013-03-01 07:00:00,31.6,31.4,29.73,WSW,257,0.0,0.0,99,0.00,,---,0.00,VWS V14.01,2013-03-01 12:00:00,
2013-03-01 07:10:00,31.5,31.5,29.73,WSW,257,0.0,0.0,100,0.00,,---,0.00,VWS V14.01,2013-03-01 12:10:00,
2013-03-01 07:20:00,31.8,31.8,29.73,WSW,257,0.0,0.0,100,0.00,,---,0.00,VWS V14.01,2013-03-01 12:20:00,
2013-03-01 07:30:00,32.1,32.1,29.74,WSW,257,0.0,0.0,100,0.00,,---,0.00,VWS V14.01,2013-03-01 12:30:00,
2013-03-01 07:40:00,32.5,32.5,29.74,WSW,257,0.0,0.0,100,0.00,,---,0.00,VWS V14.01,2013-03-01 12:40:00,
2013-03-01 07:50:00,33.2,32.7,29.73,SSW,212,0.0,2.0,98,0.00,,---,0.00,VWS V14.01,2013-03-01 12:50:00,
2013-03-01 08:00:00,34.3,33.0,29.74,SSW,213,0.0,0.0,95,0.00,,---,0.00,VWS V14.01,2013-03-01 13:00:00,
2013-03-01 08:10:00,35.6,33.2,29.74,WSW,237,0.0,0.0,91,0.00,,---,0.00,VWS V14.01,2013-03-01 13:10:00,
2013-03-01 08:19:00,37.0,33.5,29.74,WSW,241,0.0,5.0,87,0.00,,---,0.00,VWS V14.01,2013-03-01 13:19:00,
2013-03-01 08:30:00,38.3,33.9,29.74,WSW,239,0.0,0.0,84,0.00,,---,0.00,VWS V14.01,2013-03-01 13:30:00,
2013-03-01 08:39:00,39.9,34.9,29.74,SSW,195,0.0,2.0,82,0.00,,---,0.00,VWS V14.01,2013-03-01 13:39:00,
2013-03-01 08:50:00,41.2,34.5,29.73,West,270,0.0,6.0,77,0.00,,---,0.00,VWS V14.01,2013-03-01 13:50:00,
2013-03-01 09:00:00,42.5,35.2,29.73,SW,227,0.0,5.0,75,0.00,,---,0.00,VWS V14.01,2013-03-01 14:00:00,
2013-03-01 09:10:00,43.1,34.0,29.73,WSW,253,0.0,10.0,70,0.00,,---,0.00,VWS V14.01,2013-03-01 14:10:00,
2013-03-01 09:20:00,43.6,34.5,29.73,West,261,0.0,6.0,70,0.00,,---,0.00,VWS V14.01,2013-03-01 14:20:00,
2013-03-01 09:30:00,44.3,34.8,29.73,West,264,0.0,6.0,69,0.00,,---,0.00,VWS V14.01,2013-03-01 14:30:00,
2013-03-01 09:40:00,44.9,34.6,29.73,NNW,332,0.0,8.0,67,0.00,,---,0.00,VWS V14.01,2013-03-01 14:40:00,
2013-03-01 09:50:00,45.4,35.1,29.73,West,265,0.0,8.0,67,0.00,,---,0.00,VWS V14.01,2013-03-01 14:50:00,
2013-03-01 10:00:00,46.1,35.4,29.73,West,270,0.0,6.0,66,0.00,,---,0.00,VWS V14.01,2013-03-01 15:00:00,
2013-03-01 10:10:00,46.5,35.0,29.73,NW,309,7.0,11.0,64,0.00,,---,0.00,VWS V14.01,2013-03-01 15:10:00,
2013-03-01 10:20:00,47.0,34.7,29.72,West,268,4.0,7.0,62,0.00,,---,0.00,VWS V14.01,2013-03-01 15:20:00,
2013-03-01 10:30:00,47.3,33.7,29.72,West,274,0.0,4.0,59,0.00,,---,0.00,VWS V14.01,2013-03-01 15:30:00,
2013-03-01 10:39:00,48.0,34.4,29.72,NW,305,0.0,4.0,59,0.00,,---,0.00,VWS V14.01,2013-03-01 15:39:00,
2013-03-01 10:50:00,48.5,34.4,29.72,NW,305,0.0,6.0,58,0.00,,---,0.00,VWS V14.01,2013-03-01 15:50:00,
2013-03-01 11:00:00,48.6,33.2,29.72,West,268,3.0,5.0,55,0.00,,---,0.00,VWS V14.01,2013-03-01 16:00:00,
2013-03-01 11:10:00,48.5,33.5,29.72,West,265,6.0,6.0,56,0.00,,---,0.00,VWS V14.01,2013-03-01 16:10:00,
2013-03-01 11:20:00,48.2,33.3,29.73,SSW,213,0.0,8.0,56,0.00,,---,0.00,VWS V14.01,2013-03-01 16:20:00,
2013-03-01 11:30:00,48.3,34.2,29.73,West,267,0.0,5.0,58,0.00,,---,0.00,VWS V14.01,2013-03-01 16:30:00,
2013-03-01 11:40:00,48.5,34.0,29.73,WNW,289,0.0,6.0,57,0.00,,---,0.00,VWS V14.01,2013-03-01 16:40:00,
2013-03-01 11:49:00,48.6,34.1,29.72,West,271,0.0,0.0,57,0.00,,---,0.00,VWS V14.01,2013-03-01 16:49:00,
2013-03-01 12:00:00,48.6,34.9,29.72,WNW,295,0.0,3.0,59,0.00,,---,0.00,VWS V14.01,2013-03-01 17:00:00,
2013-03-01 12:10:00,48.5,34.0,29.72,WNW,284,0.0,6.0,57,0.00,,---,0.00,VWS V14.01,2013-03-01 17:10:00,
2013-03-01 12:20:00,48.0,35.2,29.71,West,263,0.0,8.0,61,0.00,,---,0.00,VWS V14.01,2013-03-01 17:20:00,
2013-03-01 12:30:00,48.0,34.8,29.71,West,280,0.0,6.0,60,0.00,,---,0.00,VWS V14.01,2013-03-01 17:30:00,
2013-03-01 12:39:00,48.0,34.4,29.71,WSW,256,0.0,6.0,59,0.00,,---,0.00,VWS V14.01,2013-03-01 17:39:00,
2013-03-01 12:50:00,48.0,34.8,29.70,WSW,258,1.0,6.0,60,0.00,,---,0.00,VWS V14.01,2013-03-01 17:50:00,
2013-03-01 13:00:00,48.0,34.8,29.70,WSW,240,0.0,6.0,60,0.00,,---,0.00,VWS V14.01,2013-03-01 18:00:00,
2013-03-01 13:10:00,48.3,35.1,29.70,South,184,0.0,6.0,60,0.00,,---,0.00,VWS V14.01,2013-03-01 18:10:00,
2013-03-01 13:20:00,48.3,34.2,29.69,WSW,250,0.0,2.0,58,0.00,,---,0.00,VWS V14.01,2013-03-01 18:20:00,
2013-03-01 13:30:00,48.3,34.7,29.69,WSW,246,0.0,6.0,59,0.00,,---,0.00,VWS V14.01,2013-03-01 18:30:00,
2013-03-01 13:40:00,48.2,34.6,29.69,WSW,248,0.0,4.0,59,0.00,,---,0.00,VWS V14.01,2013-03-01 18:40:00,
2013-03-01 13:50:00,48.6,34.5,29.69,West,268,0.0,5.0,58,0.00,,---,0.00,VWS V14.01,2013-03-01 18:50:00,
2013-03-01 14:00:00,48.0,33.9,29.69,NW,315,0.0,8.0,58,0.00,,---,0.00,VWS V14.01,2013-03-01 19:00:00,
2013-03-01 14:10:00,47.4,34.2,29.69,SSW,203,0.0,5.0,60,0.00,,---,0.00,VWS V14.01,2013-03-01 19:10:00,
2013-03-01 14:19:00,47.0,33.8,29.69,WSW,247,5.0,11.0,60,0.00,,---,0.00,VWS V14.01,2013-03-01 19:19:00,
2013-03-01 14:30:00,46.8,34.5,29.69,WSW,237,2.0,8.0,62,0.00,,---,0.00,VWS V14.01,2013-03-01 19:30:00,
2013-03-01 14:40:00,46.8,34.5,29.69,South,186,0.0,5.0,62,0.00,,---,0.00,VWS V14.01,2013-03-01 19:40:00,
2013-03-01 14:50:00,46.7,34.0,29.69,SW,229,0.0,9.0,61,0.00,,---,0.00,VWS V14.01,2013-03-01 19:50:00,
2013-03-01 15:00:00,46.4,33.7,29.69,SW,227,0.0,11.0,61,0.00,,---,0.00,VWS V14.01,2013-03-01 20:00:00,
2013-03-01 15:10:00,46.2,34.3,29.69,WSW,243,3.0,5.0,63,0.00,,---,0.00,VWS V14.01,2013-03-01 20:10:00,
2013-03-01 15:20:00,46.1,34.2,29.69,SW,229,2.0,6.0,63,0.00,,---,0.00,VWS V14.01,2013-03-01 20:20:00,
2013-03-01 15:29:00,46.1,34.6,29.69,WSW,257,4.0,4.0,64,0.00,,---,0.00,VWS V14.01,2013-03-01 20:29:00,
2013-03-01 15:40:00,45.8,33.9,29.69,West,261,1.0,7.0,63,0.00,,---,0.00,VWS V14.01,2013-03-01 20:40:00,
2013-03-01 15:49:00,45.7,34.2,29.70,WSW,256,0.0,10.0,64,0.00,,---,0.00,VWS V14.01,2013-03-01 20:49:00,
2013-03-01 15:59:00,45.4,34.0,29.70,WSW,243,1.0,7.0,64,0.00,,---,0.00,VWS V14.01,2013-03-01 20:59:00,
2013-03-01 16:10:00,45.2,34.2,29.70,WSW,258,2.0,7.0,65,0.00,,---,0.00,VWS V14.01,2013-03-01 21:10:00,
2013-03-01 16:20:00,45.4,35.5,29.70,WSW,258,0.0,2.0,68,0.00,,---,0.00,VWS V14.01,2013-03-01 21:20:00,
2013-03-01 16:29:00,45.4,34.7,29.70,West,261,3.0,3.0,66,0.00,,---,0.00,VWS V14.01,2013-03-01 21:29:00,
2013-03-01 16:39:00,45.4,35.5,29.70,West,264,0.0,3.0,68,0.00,,---,0.00,VWS V14.01,2013-03-01 21:39:00,
2013-03-01 16:49:00,45.2,34.9,29.71,NW,326,0.0,0.0,67,0.00,,---,0.00,VWS V14.01,2013-03-01 21:49:00,
2013-03-01 17:00:00,44.9,34.2,29.71,WNW,292,0.0,1.0,66,0.00,,---,0.00,VWS V14.01,2013-03-01 22:00:00,
2013-03-01 17:10:00,44.8,34.9,29.71,WSW,250,0.0,0.0,68,0.00,,---,0.00,VWS V14.01,2013-03-01 22:10:00,
2013-03-01 17:20:00,44.6,34.3,29.71,West,261,0.0,0.0,67,0.00,,---,0.00,VWS V14.01,2013-03-01 22:20:00,
2013-03-01 17:30:00,44.5,34.6,29.72,WSW,258,1.0,2.0,68,0.00,,---,0.00,VWS V14.01,2013-03-01 22:30:00,
2013-03-01 17:40:00,44.3,34.8,29.72,West,281,0.0,3.0,69,0.00,,---,0.00,VWS V14.01,2013-03-01 22:40:00,
2013-03-01 17:50:00,44.2,34.3,29.72,West,272,0.0,0.0,68,0.00,,---,0.00,VWS V14.01,2013-03-01 22:50:00,
2013-03-01 18:00:00,44.1,34.6,29.72,West,272,0.0,0.0,69,0.00,,---,0.00,VWS V14.01,2013-03-01 23:00:00,
2013-03-01 18:10:00,43.9,34.8,29.72,West,272,0.0,0.0,70,0.00,,---,0.00,VWS V14.01,2013-03-01 23:10:00,
2013-03-01 18:20:00,43.9,34.8,29.73,West,272,0.0,0.0,70,0.00,,---,0.00,VWS V14.01,2013-03-01 23:20:00,
2013-03-01 18:30:00,43.8,34.7,29.74,West,272,0.0,0.0,70,0.00,,---,0.00,VWS V14.01,2013-03-01 23:30:00,
2013-03-01 18:40:00,43.6,34.8,29.74,West,272,0.0,0.0,71,0.00,,---,0.00,VWS V14.01,2013-03-01 23:40:00,
2013-03-01 18:49:00,43.6,34.8,29.74,WNW,285,0.0,0.0,71,0.00,,---,0.00,VWS V14.01,2013-03-01 23:49:00,
2013-03-01 19:00:00,43.5,35.1,29.74,WNW,284,0.0,0.0,72,0.00,,---,0.00,VWS V14.01,2013-03-02 00:00:00,
2013-03-01 19:10:00,43.5,34.7,29.74,WNW,284,0.0,0.0,71,0.00,,---,0.00,VWS V14.01,2013-03-02 00:10:00,
2013-03-01 19:19:00,43.3,34.9,29.75,WNW,285,0.0,0.0,72,0.00,,---,0.00,VWS V14.01,2013-03-02 00:19:00,
2013-03-01 19:30:00,43.3,35.2,29.75,WNW,285,0.0,0.0,73,0.00,,---,0.00,VWS V14.01,2013-03-02 00:30:00,
2013-03-01 19:40:00,43.2,35.5,29.75,WNW,285,0.0,0.0,74,0.00,,---,0.00,VWS V14.01,2013-03-02 00:40:00,
2013-03-01 19:50:00,43.1,35.4,29.76,WNW,285,0.0,0.0,74,0.00,,---,0.00,VWS V14.01,2013-03-02 00:50:00,
2013-03-01 19:59:00,42.8,35.4,29.76,WNW,285,0.0,0.0,75,0.00,,---,0.00,VWS V14.01,2013-03-02 00:59:00,
2013-03-01 20:10:00,42.6,35.2,29.76,WNW,285,0.0,0.0,75,0.00,,---,0.00,VWS V14.01,2013-03-02 01:10:00,
2013-03-01 20:20:00,42.6,35.2,29.75,WNW,285,0.0,0.0,75,0.00,,---,0.00,VWS V14.01,2013-03-02 01:20:00,
2013-03-01 20:30:00,42.5,35.2,29.75,WNW,285,0.0,0.0,75,0.00,,---,0.00,VWS V14.01,2013-03-02 01:30:00,
2013-03-01 20:40:00,42.3,35.3,29.75,WNW,285,0.0,0.0,76,0.00,,---,0.00,VWS V14.01,2013-03-02 01:40:00,
2013-03-01 20:49:00,42.2,35.5,29.76,WNW,285,0.0,0.0,77,0.00,,---,0.00,VWS V14.01,2013-03-02 01:49:00,
2013-03-01 21:00:00,42.2,35.5,29.76,WNW,285,0.0,0.0,77,0.00,,---,0.00,VWS V14.01,2013-03-02 02:00:00,
2013-03-01 21:10:00,42.2,35.2,29.76,WNW,285,0.0,0.0,76,0.00,,---,0.00,VWS V14.01,2013-03-02 02:10:00,
2013-03-01 21:20:00,42.2,34.9,29.76,West,264,0.0,4.0,75,0.00,,---,0.00,VWS V14.01,2013-03-02 02:20:00,
2013-03-01 21:29:00,42.3,34.6,29.76,West,265,0.0,1.0,74,0.00,,---,0.00,VWS V14.01,2013-03-02 02:29:00,
2013-03-01 21:40:00,42.2,34.5,29.76,West,264,0.0,2.0,74,0.00,,---,0.00,VWS V14.01,2013-03-02 02:40:00,
2013-03-01 21:49:00,42.2,34.5,29.76,West,265,0.0,2.0,74,0.00,,---,0.00,VWS V14.01,2013-03-02 02:49:00,
2013-03-01 22:00:00,42.1,34.1,29.76,West,265,0.0,2.0,73,0.00,,---,0.00,VWS V14.01,2013-03-02 03:00:00,
2013-03-01 22:09:00,42.1,34.1,29.76,West,265,0.0,0.0,73,0.00,,---,0.00,VWS V14.01,2013-03-02 03:09:00,
2013-03-01 22:20:00,41.9,34.2,29.76,West,265,0.0,0.0,74,0.00,,---,0.00,VWS V14.01,2013-03-02 03:20:00,
2013-03-01 22:30:00,41.8,33.8,29.76,WSW,239,0.0,0.0,73,0.00,,---,0.00,VWS V14.01,2013-03-02 03:30:00,
2013-03-01 22:40:00,41.6,33.9,29.76,WSW,241,0.0,0.0,74,0.00,,---,0.00,VWS V14.01,2013-03-02 03:40:00,
2013-03-01 22:50:00,41.3,34.0,29.76,WSW,244,0.0,1.0,75,0.00,,---,0.00,VWS V14.01,2013-03-02 03:50:00,
2013-03-01 22:59:00,40.9,33.9,29.75,WSW,240,0.0,0.0,76,0.00,,---,0.00,VWS V14.01,2013-03-02 03:59:00,
2013-03-01 23:10:00,40.6,33.0,29.75,NW,322,0.0,7.0,74,0.00,,---,0.00,VWS V14.01,2013-03-02 04:10:00,
2013-03-01 23:19:00,40.5,33.2,29.76,West,264,0.0,2.0,75,0.00,,---,0.00,VWS V14.01,2013-03-02 04:19:00,
2013-03-01 23:30:00,40.1,32.5,29.76,West,272,0.0,1.0,74,0.00,,---,0.00,VWS V14.01,2013-03-02 04:30:00,
2013-03-01 23:40:00,39.8,32.2,29.76,SW,230,0.0,5.0,74,0.00,,---,0.00,VWS V14.01,2013-03-02 04:40:00,
2013-03-01 23:49:00,39.5,32.2,29.76,WNW,288,0.0,2.0,75,0.00,,---,0.00,VWS V14.01,2013-03-02 04:49:00,